Terminal Aerodrome Forecast
Issued by NWS

Home | Current Version | Previous Version | Graphics & Text | Print | Product List | Glossary On
Versions: 1 2 3 4 5 6 7 8 9 10 11 12 13
000
FTUS43 KTOP 252300
TAFFOE
TAF
KFOE 252333Z 2600/2624 34020G30KT 6SM -SN OVC018
     FM260300 36024G31KT P6SM OVC013
     FM261400 36016G22KT P6SM OVC015
     FM261800 36013KT P6SM SCT020=

USA.gov is the U.S. government's official web portal to all federal, state and local government web resources and services.